Terminal Aerodrome Forecast
Issued by NWS

Home | Current Version | Previous Version | Text Only | Print | Product List | Glossary On
Versions: 1 2 3 4 5 6 7 8 9 10 11 12 13 14 15 16 17 18 19 20 21 22 23 24 25 26 27 28 29 30 31 32 33 34 35 36 37
000
FTUS46 KLOX 030800 AAB
TAFLAX
TAF AMD
KLAX 030805Z 0308/0412 19006KT P6SM FEW014
     FM031000 19006KT P6SM OVC014
     FM031300 VRB03KT 5SM HZ OVC015
     FM031700 24008KT P6SM BKN020
     FM032100 25012KT P6SM SCT020
     FM040300 25012KT P6SM BKN015
     FM040700 26006KT P6SM OVC015=

USA.gov is the U.S. government's official web portal to all federal, state and local government web resources and services.